createdAt,value
2019-05-10T00:00:11.876Z,2.93
2019-05-10T00:02:54.700Z,2.50
2019-05-10T00:05:37.236Z,1.43
2019-05-10T00:08:19.880Z,1.63
2019-05-10T00:10:46.061Z,1.80
2019-05-10T00:13:24.155Z,1.20
2019-05-10T00:15:48.624Z,3.00
2019-05-10T00:18:13.216Z,5.10
2019-05-10T00:20:37.717Z,1.83
2019-05-10T00:23:02.170Z,1.60
2019-05-10T00:25:26.642Z,1.37
2019-05-10T00:27:51.149Z,1.50
2019-05-10T00:30:15.832Z,1.43
2019-05-10T00:32:40.272Z,1.40
2019-05-10T00:35:06.468Z,1.50
2019-05-10T00:37:30.893Z,1.60
2019-05-10T00:39:55.431Z,1.40
2019-05-10T00:42:20.525Z,1.40
2019-05-10T00:44:45.117Z,1.50
2019-05-10T00:47:09.720Z,1.30
2019-05-10T00:49:34.174Z,1.67
2019-05-10T00:51:58.637Z,2.57
2019-05-10T00:54:23.107Z,1.30
2019-05-10T00:56:47.704Z,1.40
2019-05-10T00:59:12.152Z,1.80
2019-05-10T01:01:36.697Z,1.77
2019-05-10T01:04:01.136Z,2.80
2019-05-10T01:06:25.610Z,1.30
2019-05-10T01:08:50.070Z,1.70
2019-05-10T01:11:14.606Z,1.77
2019-05-10T01:13:39.139Z,2.13
2019-05-10T01:16:03.679Z,1.80
2019-05-10T01:18:28.184Z,3.13
2019-05-10T01:20:52.661Z,2.63
2019-05-10T01:23:17.185Z,1.53
2019-05-10T01:25:41.626Z,1.37
2019-05-10T01:28:06.381Z,1.23
2019-05-10T01:30:30.813Z,1.83
2019-05-10T01:32:55.417Z,1.70
2019-05-10T01:35:19.931Z,2.60
2019-05-10T01:37:44.413Z,1.40
2019-05-10T01:40:09.101Z,1.67
2019-05-10T01:42:33.597Z,2.03
2019-05-10T01:44:58.054Z,1.77
2019-05-10T01:47:22.560Z,2.13
2019-05-10T01:49:47.011Z,1.50
2019-05-10T01:52:11.932Z,1.50
2019-05-10T01:54:36.522Z,2.53
2019-05-10T01:57:00.996Z,1.43
2019-05-10T01:59:25.584Z,1.50
2019-05-10T02:01:50.127Z,2.70
2019-05-10T02:04:17.613Z,1.50
2019-05-10T02:06:40.805Z,1.70
2019-05-10T02:09:07.738Z,1.80
2019-05-10T02:11:32.252Z,1.60
2019-05-10T02:13:56.736Z,1.97
2019-05-10T02:16:21.176Z,2.57
2019-05-10T02:18:45.716Z,1.97
2019-05-10T02:21:10.172Z,2.10
2019-05-10T02:23:34.653Z,1.90
2019-05-10T02:26:08.852Z,2.10
2019-05-10T02:28:25.417Z,2.00
2019-05-10T02:30:49.860Z,2.27
2019-05-10T02:33:14.484Z,2.53
2019-05-10T02:35:39.223Z,2.63
2019-05-10T02:38:03.911Z,2.90
2019-05-10T02:40:28.431Z,3.07
2019-05-10T02:42:52.937Z,3.93
2019-05-10T02:45:17.526Z,3.90
2019-05-10T02:47:42.186Z,3.63
2019-05-10T02:50:08.528Z,4.13
2019-05-10T02:52:33.139Z,5.00
2019-05-10T02:54:57.927Z,5.10
2019-05-10T02:57:22.757Z,5.67
2019-05-10T02:59:48.804Z,7.20
2019-05-10T03:02:14.360Z,5.80
2019-05-10T03:04:39.002Z,6.00
2019-05-10T03:07:05.829Z,5.27
2019-05-10T03:09:32.003Z,6.00
2019-05-10T03:11:59.482Z,5.40
2019-05-10T03:14:26.617Z,6.80
2019-05-10T03:16:51.890Z,7.10
2019-05-10T03:19:21.052Z,7.80
2019-05-10T03:21:47.979Z,7.63
2019-05-10T03:24:12.533Z,7.33
2019-05-10T03:26:50.319Z,7.73
2019-05-10T03:29:05.929Z,7.47
2019-05-10T03:31:30.525Z,7.70
2019-05-10T03:33:57.537Z,8.60
2019-05-10T03:36:21.607Z,8.37
2019-05-10T03:38:47.039Z,9.07
2019-05-10T03:41:11.905Z,9.90
2019-05-10T03:43:36.433Z,8.80
2019-05-10T03:46:00.934Z,9.23
2019-05-10T03:48:25.365Z,8.80
2019-05-10T03:50:49.898Z,9.90
2019-05-10T03:53:14.466Z,11.23
2019-05-10T03:55:38.939Z,9.77
2019-05-10T03:58:03.547Z,9.57
2019-05-10T04:00:28.080Z,9.97
2019-05-10T04:02:52.612Z,11.80
2019-05-10T04:05:17.225Z,10.13
2019-05-10T04:07:41.723Z,10.20
2019-05-10T04:10:09.382Z,10.23
2019-05-10T04:12:33.826Z,10.50
2019-05-10T04:14:58.489Z,10.80
2019-05-10T04:17:23.008Z,11.57
2019-05-10T04:19:47.542Z,11.80
2019-05-10T04:22:12.239Z,11.60
2019-05-10T04:24:36.838Z,11.70
2019-05-10T04:27:01.249Z,10.77
2019-05-10T04:29:25.722Z,10.70
2019-05-10T04:31:50.202Z,10.27
2019-05-10T04:34:14.800Z,10.80
2019-05-10T04:36:39.311Z,10.73
2019-05-10T04:39:05.318Z,11.23
2019-05-10T04:41:29.822Z,10.87
2019-05-10T04:43:54.285Z,12.33
2019-05-10T04:46:18.759Z,11.60
2019-05-10T04:48:43.217Z,12.50
2019-05-10T04:51:07.910Z,13.27
2019-05-10T04:53:32.312Z,16.37
2019-05-10T04:55:56.895Z,13.83
2019-05-10T04:58:21.371Z,14.30
2019-05-10T05:00:45.811Z,14.13
2019-05-10T05:03:10.440Z,14.97
2019-05-10T05:05:34.938Z,17.63
2019-05-10T05:07:59.417Z,14.10
2019-05-10T05:10:23.880Z,16.73
2019-05-10T05:12:48.391Z,15.10
2019-05-10T05:15:13.224Z,20.43
2019-05-10T05:17:37.748Z,17.13
2019-05-10T05:20:02.198Z,17.07
2019-05-10T05:22:26.671Z,17.53
2019-05-10T05:24:55.178Z,18.30
2019-05-10T05:27:17.304Z,18.43
2019-05-10T05:29:41.806Z,19.80
2019-05-10T05:32:06.372Z,18.60
2019-05-10T05:34:30.828Z,19.07
2019-05-10T05:36:55.500Z,19.07
2019-05-10T05:39:20.012Z,19.47
2019-05-10T05:41:49.051Z,19.73
2019-05-10T05:44:10.783Z,21.87
2019-05-10T05:46:35.256Z,18.90
2019-05-10T05:48:59.812Z,20.27
2019-05-10T05:51:24.354Z,22.07
2019-05-10T05:53:48.886Z,22.43
2019-05-10T05:56:14.667Z,21.37
2019-05-10T05:58:44.400Z,25.50
2019-05-10T06:01:05.687Z,22.77
2019-05-10T06:03:30.185Z,27.77
2019-05-10T06:05:54.611Z,25.40
2019-05-10T06:08:24.698Z,24.70
2019-05-10T06:10:56.182Z,25.50
2019-05-10T06:13:11.560Z,22.57
2019-05-10T06:15:36.139Z,25.20
2019-05-10T06:18:03.539Z,23.87
2019-05-10T06:20:26.889Z,21.50
2019-05-10T06:23:05.796Z,22.13
2019-05-10T06:25:17.565Z,23.43
2019-05-10T06:27:43.209Z,23.93
2019-05-10T06:30:08.314Z,24.50
2019-05-10T06:32:33.110Z,23.10
2019-05-10T06:34:58.209Z,22.37
2019-05-10T06:37:22.659Z,23.47
2019-05-10T06:39:47.136Z,22.83
2019-05-10T06:42:11.655Z,22.37
2019-05-10T06:44:36.223Z,23.47
2019-05-10T06:47:08.024Z,24.20
2019-05-10T06:49:28.396Z,23.53
2019-05-10T06:51:52.851Z,25.53
2019-05-10T06:54:17.402Z,23.93
2019-05-10T06:56:41.857Z,24.23
2019-05-10T06:59:13.642Z,23.60
2019-05-10T07:01:38.335Z,24.60
2019-05-10T07:03:58.795Z,24.80
2019-05-10T07:06:23.354Z,24.40
2019-05-10T07:08:51.959Z,29.03
2019-05-10T07:11:14.007Z,28.03
2019-05-10T07:13:40.486Z,25.53
2019-05-10T07:16:04.937Z,26.30
2019-05-10T07:18:29.469Z,26.43
2019-05-10T07:20:53.994Z,27.73
2019-05-10T07:23:18.471Z,27.90
2019-05-10T07:25:44.554Z,28.67
2019-05-10T07:28:15.160Z,27.63
2019-05-10T07:30:41.077Z,27.70
2019-05-10T07:33:03.772Z,27.23
2019-05-10T07:35:30.901Z,27.80
2019-05-10T07:37:54.455Z,26.07
2019-05-10T07:40:19.023Z,26.27
2019-05-10T07:42:45.551Z,24.77
2019-05-10T07:45:10.337Z,25.03
2019-05-10T07:47:34.827Z,23.43
2019-05-10T07:50:03.841Z,20.53
2019-05-10T07:52:25.510Z,18.60
2019-05-10T07:54:49.977Z,19.23
2019-05-10T07:57:18.636Z,17.33
2019-05-10T07:59:49.937Z,16.60
2019-05-10T08:02:12.818Z,17.90
2019-05-10T08:04:33.706Z,18.73
2019-05-10T08:06:59.703Z,16.63
2019-05-10T08:09:24.279Z,15.83
2019-05-10T08:11:54.027Z,16.83
2019-05-10T08:14:14.930Z,17.40
2019-05-10T08:16:39.411Z,13.33
2019-05-10T08:19:03.938Z,13.40
2019-05-10T08:21:28.451Z,14.00
2019-05-10T08:23:54.100Z,14.30
2019-05-10T08:26:24.130Z,15.37
2019-05-10T08:28:44.910Z,13.23
2019-05-10T08:31:12.167Z,13.60
2019-05-10T08:33:35.832Z,10.53
2019-05-10T08:36:02.912Z,9.17
2019-05-10T08:38:26.577Z,9.50
2019-05-10T08:40:52.707Z,12.23
2019-05-10T08:43:17.561Z,10.83
2019-05-10T08:45:45.030Z,11.83
2019-05-10T08:48:08.688Z,13.80
2019-05-10T08:50:45.675Z,13.40
2019-05-10T08:53:02.360Z,13.03
2019-05-10T08:55:25.652Z,12.83
2019-05-10T08:57:52.354Z,12.53
2019-05-10T09:00:17.024Z,13.73
2019-05-10T09:02:42.697Z,13.37
2019-05-10T09:05:07.534Z,11.80
2019-05-10T09:07:34.957Z,13.80
2019-05-10T09:09:58.239Z,11.03
2019-05-10T09:12:23.179Z,9.63
2019-05-10T09:14:48.876Z,12.40
2019-05-10T09:17:14.724Z,9.73
2019-05-10T09:19:41.650Z,6.53
2019-05-10T09:22:05.788Z,8.70
2019-05-10T09:24:34.545Z,7.53
2019-05-10T09:26:57.119Z,7.87
2019-05-10T09:29:22.033Z,8.00
2019-05-10T09:31:50.683Z,8.60
2019-05-10T09:34:12.821Z,8.67
2019-05-10T09:36:37.260Z,7.53
2019-05-10T09:39:03.426Z,6.37
2019-05-10T09:41:33.817Z,6.37
2019-05-10T09:43:54.153Z,5.93
2019-05-10T09:46:18.738Z,7.10
2019-05-10T09:48:45.052Z,7.20
2019-05-10T09:51:09.438Z,6.27
2019-05-10T09:53:33.989Z,5.60
2019-05-10T09:56:02.590Z,5.23
2019-05-10T09:58:24.817Z,4.87
2019-05-10T10:00:49.256Z,5.63
2019-05-10T10:03:13.750Z,6.77
2019-05-10T10:05:40.331Z,6.90
2019-05-10T10:08:08.986Z,6.73
2019-05-10T10:10:32.578Z,6.30
2019-05-10T10:12:58.297Z,6.20
2019-05-10T10:15:32.072Z,5.93
2019-05-10T10:17:49.684Z,6.30
2019-05-10T10:20:14.259Z,7.80
2019-05-10T10:22:43.458Z,7.77
2019-05-10T10:25:09.354Z,8.20
2019-05-10T10:27:34.780Z,9.03
2019-05-10T10:30:06.650Z,7.50
2019-05-10T10:32:31.380Z,7.70
2019-05-10T10:34:57.663Z,8.23
2019-05-10T10:37:25.693Z,8.20
2019-05-10T10:39:47.825Z,7.13
2019-05-10T10:42:13.333Z,8.23
2019-05-10T10:44:37.927Z,7.07
2019-05-10T10:47:02.364Z,6.57
2019-05-10T10:49:30.795Z,6.67
2019-05-10T10:51:53.104Z,6.60
2019-05-10T10:54:22.405Z,6.20
2019-05-10T10:56:44.027Z,6.40
2019-05-10T10:59:08.537Z,5.20
2019-05-10T11:01:46.229Z,6.13
2019-05-10T11:04:03.448Z,7.30
2019-05-10T11:06:25.298Z,7.00
2019-05-10T11:08:51.843Z,7.97
2019-05-10T11:11:16.139Z,8.37
2019-05-10T11:13:45.385Z,7.27
2019-05-10T11:16:14.070Z,7.13
2019-05-10T11:18:33.013Z,7.33
2019-05-10T11:20:57.495Z,7.10
2019-05-10T11:23:24.498Z,6.93
2019-05-10T11:25:54.838Z,5.57
2019-05-10T11:28:14.317Z,2.70
2019-05-10T11:30:38.784Z,2.57
2019-05-10T11:33:03.266Z,1.40
2019-05-10T11:35:31.434Z,2.17
2019-05-10T11:37:54.014Z,1.53
2019-05-10T11:40:30.472Z,1.60
2019-05-10T11:42:47.532Z,2.43
2019-05-10T11:45:11.498Z,1.53
2019-05-10T11:47:35.973Z,2.10
2019-05-10T11:50:06.054Z,1.70
2019-05-10T11:52:29.220Z,1.67
2019-05-10T11:54:52.976Z,1.70
2019-05-10T11:57:17.498Z,1.87
2019-05-10T11:59:41.946Z,2.13
2019-05-10T12:02:10.337Z,2.53
2019-05-10T12:07:01.792Z,2.50
2019-05-10T12:09:25.928Z,2.63
2019-05-10T12:11:52.165Z,2.60
2019-05-10T12:14:16.666Z,4.30
2019-05-10T12:16:42.161Z,2.70
2019-05-10T12:19:15.827Z,3.20
2019-05-10T12:21:33.394Z,3.40
2019-05-10T12:24:10.506Z,2.43
2019-05-10T12:26:06.159Z,2.23
2019-05-10T12:28:51.176Z,2.73
2019-05-10T12:31:17.191Z,2.50
2019-05-10T12:33:45.208Z,2.17
2019-05-10T12:36:13.487Z,2.50
2019-05-10T12:38:35.895Z,2.43
2019-05-10T12:41:01.373Z,2.80
2019-05-10T12:43:26.300Z,2.20
2019-05-10T12:45:51.781Z,3.60
2019-05-10T12:48:16.641Z,2.40
2019-05-10T12:50:44.027Z,4.13
2019-05-10T12:53:13.904Z,3.77
2019-05-10T12:55:33.601Z,2.87
2019-05-10T12:57:58.189Z,2.00
2019-05-10T13:00:22.900Z,3.10
2019-05-10T13:02:51.091Z,2.50
2019-05-10T13:05:15.686Z,2.43
2019-05-10T13:07:39.880Z,2.90
2019-05-10T13:10:07.927Z,1.90
2019-05-10T13:12:36.767Z,2.33
2019-05-10T13:14:58.274Z,2.37
2019-05-10T13:17:22.750Z,2.93
2019-05-10T13:19:47.361Z,2.43
2019-05-10T13:22:11.903Z,2.43
2019-05-10T13:24:36.436Z,2.00
2019-05-10T13:27:03.556Z,2.07
2019-05-10T13:29:27.104Z,2.17
2019-05-10T13:31:51.618Z,1.83
2019-05-10T13:34:16.084Z,2.37
2019-05-10T13:36:40.559Z,1.40
2019-05-10T13:39:06.634Z,1.70
2019-05-10T13:41:31.123Z,2.80
2019-05-10T13:43:58.990Z,2.47
2019-05-10T13:46:21.941Z,3.33
2019-05-10T13:48:46.395Z,2.20
2019-05-10T13:51:10.860Z,1.70
2019-05-10T13:53:35.413Z,1.87
2019-05-10T13:55:59.900Z,2.17
2019-05-10T13:58:24.401Z,2.60
2019-05-10T14:00:48.927Z,2.50
2019-05-10T14:03:13.700Z,3.30
2019-05-10T14:05:40.334Z,4.20
2019-05-10T14:08:04.568Z,4.07
2019-05-10T14:10:29.158Z,2.33
2019-05-10T14:12:56.105Z,3.23
2019-05-10T14:15:19.982Z,2.20
2019-05-10T14:17:44.457Z,1.83
2019-05-10T14:20:19.441Z,2.40
2019-05-10T14:22:36.038Z,2.70
2019-05-10T14:25:00.469Z,3.40
2019-05-10T14:27:29.975Z,2.00
2019-05-10T14:29:51.198Z,4.77
2019-05-10T14:32:15.670Z,1.97
2019-05-10T14:34:44.209Z,2.03
2019-05-10T14:37:06.459Z,2.70
2019-05-10T14:39:30.939Z,4.10
2019-05-10T14:41:55.421Z,2.90
2019-05-10T14:44:19.954Z,2.23
2019-05-10T14:46:44.391Z,3.57
2019-05-10T14:49:10.088Z,3.77
2019-05-10T14:51:44.332Z,2.40
2019-05-10T14:54:06.806Z,3.47
2019-05-10T14:56:27.430Z,2.47
2019-05-10T14:58:51.993Z,1.77
2019-05-10T15:01:16.499Z,2.53
2019-05-10T15:03:45.288Z,3.27
2019-05-10T15:06:07.165Z,3.03
2019-05-10T15:08:31.660Z,3.07
2019-05-10T15:10:57.273Z,2.00
2019-05-10T15:13:25.504Z,2.07
2019-05-10T15:15:48.220Z,2.50
2019-05-10T15:18:12.838Z,1.60
2019-05-10T15:20:37.358Z,1.87
2019-05-10T15:23:01.851Z,1.90
2019-05-10T15:25:26.495Z,4.10
2019-05-10T15:27:54.762Z,2.03
2019-05-10T15:30:17.521Z,2.33
2019-05-10T15:32:42.053Z,1.90
2019-05-10T15:35:08.702Z,2.77
2019-05-10T15:37:33.571Z,1.63
2019-05-10T15:40:00.582Z,1.80
2019-05-10T15:42:24.329Z,2.00
2019-05-10T15:44:48.804Z,2.53
2019-05-10T15:47:19.765Z,2.07
2019-05-10T15:49:39.481Z,1.60
2019-05-10T15:52:16.827Z,1.90
2019-05-10T15:54:30.339Z,2.57
2019-05-10T15:56:55.757Z,1.90
2019-05-10T15:59:21.314Z,2.33
2019-05-10T16:01:46.201Z,1.90
2019-05-10T16:04:10.863Z,2.00
2019-05-10T16:06:37.667Z,2.63
2019-05-10T16:09:03.529Z,1.73
2019-05-10T16:11:27.789Z,1.63
2019-05-10T16:13:54.657Z,2.23
2019-05-10T16:16:18.595Z,3.50
2019-05-10T16:18:42.985Z,1.63
2019-05-10T16:21:09.744Z,1.63
2019-05-10T16:23:33.659Z,2.33
2019-05-10T16:25:58.126Z,1.97
2019-05-10T16:28:22.956Z,1.60
2019-05-10T16:30:47.811Z,3.70
2019-05-10T16:33:15.594Z,2.97
2019-05-10T16:35:39.319Z,2.53
2019-05-10T16:38:03.869Z,3.47
2019-05-10T16:40:28.381Z,1.97
2019-05-10T16:42:52.984Z,2.10
2019-05-10T16:45:17.673Z,4.30
2019-05-10T16:47:44.228Z,2.83
2019-05-10T16:50:10.067Z,3.60
2019-05-10T16:52:34.691Z,3.10
2019-05-10T16:55:03.665Z,2.23
2019-05-10T16:57:25.698Z,3.10
2019-05-10T16:59:50.505Z,5.17
2019-05-10T17:02:15.153Z,2.50
2019-05-10T17:04:39.919Z,3.83
2019-05-10T17:07:04.511Z,3.67
2019-05-10T17:09:29.343Z,3.73
2019-05-10T17:11:59.033Z,2.57
2019-05-10T17:14:23.342Z,2.27
2019-05-10T17:16:49.621Z,2.27
2019-05-10T17:19:14.083Z,3.63
2019-05-10T17:21:38.620Z,2.40
2019-05-10T17:24:03.143Z,2.70
2019-05-10T17:26:27.604Z,3.73
2019-05-10T17:28:52.065Z,4.30
2019-05-10T17:31:16.634Z,2.37
2019-05-10T17:33:42.828Z,1.87
2019-05-10T17:36:08.866Z,2.67
2019-05-10T17:38:33.615Z,2.77
2019-05-10T17:40:58.379Z,4.97
2019-05-10T17:43:22.954Z,2.47
2019-05-10T17:45:47.365Z,2.07
2019-05-10T17:48:11.806Z,2.33
2019-05-10T17:50:36.256Z,2.33
2019-05-10T17:53:00.744Z,3.40
2019-05-10T17:55:25.680Z,2.83
2019-05-10T17:57:54.532Z,3.27
2019-05-10T18:00:17.027Z,2.73
2019-05-10T18:02:41.497Z,1.80
2019-05-10T18:05:08.266Z,2.00
2019-05-10T18:07:32.936Z,1.60
2019-05-10T18:09:57.453Z,3.73
2019-05-10T18:12:26.685Z,1.50
2019-05-10T18:14:50.195Z,2.53
2019-05-10T18:17:14.402Z,2.10
2019-05-10T18:19:39.015Z,4.43
2019-05-10T18:22:06.440Z,2.93
2019-05-10T18:24:35.104Z,2.43
2019-05-10T18:26:56.082Z,4.47
2019-05-10T18:29:20.524Z,2.30
2019-05-10T18:31:54.679Z,3.83
2019-05-10T18:34:11.239Z,3.83
2019-05-10T18:36:50.983Z,4.97
2019-05-10T18:39:01.937Z,2.60
2019-05-10T18:41:26.550Z,3.03
2019-05-10T18:43:51.126Z,3.27
2019-05-10T18:46:15.584Z,5.53
2019-05-10T18:48:40.061Z,3.53
2019-05-10T18:51:04.662Z,2.60
2019-05-10T18:53:29.185Z,4.83
2019-05-10T18:55:53.624Z,2.60
2019-05-10T18:58:23.310Z,2.70
2019-05-10T19:00:44.244Z,3.43
2019-05-10T19:03:08.815Z,4.10
2019-05-10T19:05:33.305Z,3.03
2019-05-10T19:08:05.069Z,5.00
2019-05-10T19:10:24.057Z,3.73
2019-05-10T19:12:59.779Z,3.23
2019-05-10T19:15:15.643Z,4.00
2019-05-10T19:17:45.642Z,4.40
2019-05-10T19:20:09.521Z,3.30
2019-05-10T19:22:33.665Z,3.63
2019-05-10T19:25:10.849Z,2.83
2019-05-10T19:27:25.186Z,4.10
2019-05-10T19:29:49.830Z,6.70
2019-05-10T19:32:18.169Z,4.33
2019-05-10T19:34:40.540Z,3.47
2019-05-10T19:37:04.991Z,3.70
2019-05-10T19:39:29.456Z,6.53
2019-05-10T19:42:03.065Z,5.33
2019-05-10T19:44:20.097Z,4.50
2019-05-10T19:46:44.529Z,3.63
2019-05-10T19:49:13.409Z,4.83
2019-05-10T19:51:35.380Z,6.70
2019-05-10T19:53:59.884Z,6.47
2019-05-10T19:56:24.343Z,4.63
2019-05-10T19:58:49.484Z,3.63
2019-05-10T20:01:14.006Z,4.30
2019-05-10T20:03:38.636Z,6.33
2019-05-10T20:06:03.074Z,9.17
2019-05-10T20:08:27.597Z,5.70
2019-05-10T20:10:52.113Z,5.20
2019-05-10T20:13:16.551Z,7.17
2019-05-10T20:15:41.008Z,11.87
2019-05-10T20:18:05.771Z,19.47
2019-05-10T20:20:30.354Z,25.93
2019-05-10T20:22:54.777Z,21.07
2019-05-10T20:25:19.329Z,25.60
2019-05-10T20:27:43.788Z,22.67
2019-05-10T20:30:09.191Z,18.23
2019-05-10T20:32:33.650Z,18.93
2019-05-10T20:34:58.212Z,19.27
2019-05-10T20:37:22.669Z,11.83
2019-05-10T20:39:47.300Z,11.77
2019-05-10T20:42:11.966Z,13.30
2019-05-10T20:44:36.488Z,12.90
2019-05-10T20:47:00.935Z,16.33
2019-05-10T20:49:25.469Z,12.33
2019-05-10T20:51:50.016Z,15.47
2019-05-10T20:54:14.547Z,12.93
2019-05-10T20:56:39.018Z,11.60
2019-05-10T20:59:03.612Z,11.60
2019-05-10T21:01:28.105Z,13.40
2019-05-10T21:03:52.633Z,15.37
2019-05-10T21:06:17.127Z,12.90
2019-05-10T21:08:41.587Z,13.80
2019-05-10T21:11:06.208Z,13.27
2019-05-10T21:13:30.693Z,13.83
2019-05-10T21:15:55.164Z,12.97
2019-05-10T21:18:19.618Z,12.63
2019-05-10T21:20:44.089Z,12.53
2019-05-10T21:23:08.691Z,11.40
2019-05-10T21:25:33.174Z,10.97
2019-05-10T21:27:57.619Z,10.93
2019-05-10T21:30:22.244Z,14.97
2019-05-10T21:32:46.704Z,15.70
2019-05-10T21:35:11.333Z,15.83
2019-05-10T21:37:35.870Z,17.93
2019-05-10T21:40:00.454Z,15.07
2019-05-10T21:42:24.977Z,14.37
2019-05-10T21:44:49.504Z,10.43
2019-05-10T21:47:14.172Z,10.50
2019-05-10T21:49:38.756Z,10.60
2019-05-10T21:52:03.305Z,10.33
2019-05-10T21:54:27.746Z,8.03
2019-05-10T21:56:52.221Z,9.33
2019-05-10T21:59:16.668Z,8.63
2019-05-10T22:01:41.210Z,11.70
2019-05-10T22:04:05.720Z,7.03
2019-05-10T22:06:30.271Z,8.07
2019-05-10T22:08:54.796Z,6.60
2019-05-10T22:11:19.899Z,6.33
2019-05-10T22:13:44.365Z,6.77
2019-05-10T22:16:08.890Z,6.70
2019-05-10T22:18:33.690Z,6.13
2019-05-10T22:20:58.227Z,6.97
2019-05-10T22:23:22.662Z,6.20
2019-05-10T22:25:47.143Z,6.70
2019-05-10T22:28:11.677Z,9.13
2019-05-10T22:30:36.190Z,9.50
2019-05-10T22:33:00.716Z,8.57
2019-05-10T22:35:25.341Z,7.57
2019-05-10T22:37:49.883Z,8.07
2019-05-10T22:40:14.460Z,8.97
2019-05-10T22:42:39.117Z,7.80
2019-05-10T22:45:04.043Z,10.73
2019-05-10T22:47:28.472Z,7.83
2019-05-10T22:49:52.919Z,7.13
2019-05-10T22:52:17.489Z,8.13
2019-05-10T22:54:42.003Z,8.00
2019-05-10T22:57:06.496Z,6.63
2019-05-10T22:59:30.983Z,5.77
2019-05-10T23:01:55.537Z,4.40
2019-05-10T23:04:20.253Z,6.03
2019-05-10T23:06:44.893Z,5.77
2019-05-10T23:09:23.402Z,5.33
2019-05-10T23:11:35.564Z,5.03
2019-05-10T23:14:00.040Z,4.93
2019-05-10T23:16:24.621Z,4.67
2019-05-10T23:18:49.076Z,5.53
2019-05-10T23:21:13.561Z,5.13
2019-05-10T23:23:38.007Z,4.77
2019-05-10T23:26:02.458Z,5.03
2019-05-10T23:28:26.936Z,5.63
2019-05-10T23:30:52.973Z,5.27
2019-05-10T23:33:18.402Z,5.27
2019-05-10T23:35:43.216Z,4.70
2019-05-10T23:38:07.724Z,5.47
2019-05-10T23:40:32.160Z,6.17
2019-05-10T23:42:56.654Z,4.83
2019-05-10T23:45:21.157Z,8.37
2019-05-10T23:47:45.643Z,5.57
2019-05-10T23:50:10.223Z,7.00
2019-05-10T23:52:34.697Z,6.37
2019-05-10T23:54:59.216Z,5.23
2019-05-10T23:57:23.736Z,5.23
2019-05-10T23:59:48.252Z,4.97
